sensor_id;sensor_type;location;lat;lon;timestamp;pressure;altitude;pressure_sealevel;temperature;humidity
80248;BME280;69560;52.206;21.018;2023-08-08T00:01:18;99264.73;;;17.08;58.45
80248;BME280;69560;52.206;21.018;2023-08-08T00:03:44;99265.31;;;17.07;58.51
80248;BME280;69560;52.206;21.018;2023-08-08T00:06:11;99268.62;;;17.06;58.51
80248;BME280;69560;52.206;21.018;2023-08-08T00:08:38;99280.50;;;17.04;58.41
80248;BME280;69560;52.206;21.018;2023-08-08T00:11:04;99275.79;;;17.04;58.28
80248;BME280;69560;52.206;21.018;2023-08-08T00:13:31;99275.37;;;17.04;58.26
80248;BME280;69560;52.206;21.018;2023-08-08T00:15:57;99277.09;;;17.02;58.16
80248;BME280;69560;52.206;21.018;2023-08-08T00:18:24;99282.38;;;17.02;58.27
80248;BME280;69560;52.206;21.018;2023-08-08T00:20:50;99281.79;;;17.00;58.19
80248;BME280;69560;52.206;21.018;2023-08-08T00:23:17;99291.00;;;16.99;58.03
80248;BME280;69560;52.206;21.018;2023-08-08T00:25:44;99290.16;;;16.97;58.05
80248;BME280;69560;52.206;21.018;2023-08-08T00:28:10;99294.50;;;16.93;57.90
80248;BME280;69560;52.206;21.018;2023-08-08T00:30:36;99298.36;;;16.89;57.73
80248;BME280;69560;52.206;21.018;2023-08-08T00:33:03;99299.55;;;16.85;57.75
80248;BME280;69560;52.206;21.018;2023-08-08T00:35:30;99306.77;;;16.84;57.59
80248;BME280;69560;52.206;21.018;2023-08-08T00:37:56;99305.73;;;16.85;57.66
80248;BME280;69560;52.206;21.018;2023-08-08T00:40:22;99307.11;;;16.84;57.55
80248;BME280;69560;52.206;21.018;2023-08-08T00:42:49;99312.58;;;16.83;57.56
80248;BME280;69560;52.206;21.018;2023-08-08T00:45:15;99313.40;;;16.81;57.41
80248;BME280;69560;52.206;21.018;2023-08-08T00:47:42;99318.50;;;16.78;57.33
80248;BME280;69560;52.206;21.018;2023-08-08T00:50:10;99319.05;;;16.75;57.26
80248;BME280;69560;52.206;21.018;2023-08-08T00:52:38;99323.72;;;16.70;57.12
80248;BME280;69560;52.206;21.018;2023-08-08T00:55:05;99323.23;;;16.66;56.97
80248;BME280;69560;52.206;21.018;2023-08-08T00:57:32;99327.33;;;16.61;56.95
80248;BME280;69560;52.206;21.018;2023-08-08T01:00:01;99333.71;;;16.58;56.93
80248;BME280;69560;52.206;21.018;2023-08-08T01:02:28;99334.02;;;16.55;56.99
80248;BME280;69560;52.206;21.018;2023-08-08T01:04:55;99336.45;;;16.52;56.90
80248;BME280;69560;52.206;21.018;2023-08-08T01:07:33;99341.66;;;16.52;57.08
80248;BME280;69560;52.206;21.018;2023-08-08T01:10:08;99340.45;;;16.53;56.93
80248;BME280;69560;52.206;21.018;2023-08-08T01:12:41;99339.78;;;16.54;56.92
80248;BME280;69560;52.206;21.018;2023-08-08T01:15:10;99340.27;;;16.54;56.84
80248;BME280;69560;52.206;21.018;2023-08-08T01:17:38;99340.88;;;16.52;56.93
80248;BME280;69560;52.206;21.018;2023-08-08T01:20:06;99340.83;;;16.50;56.85
80248;BME280;69560;52.206;21.018;2023-08-08T01:25:19;99353.49;;;16.42;56.68
80248;BME280;69560;52.206;21.018;2023-08-08T01:27:46;99357.30;;;16.39;56.79
80248;BME280;69560;52.206;21.018;2023-08-08T01:30:13;99361.35;;;16.36;56.87
80248;BME280;69560;52.206;21.018;2023-08-08T01:32:39;99361.45;;;16.32;56.94
80248;BME280;69560;52.206;21.018;2023-08-08T01:35:06;99368.63;;;16.27;56.98
80248;BME280;69560;52.206;21.018;2023-08-08T01:37:36;99371.43;;;16.23;57.04
80248;BME280;69560;52.206;21.018;2023-08-08T01:40:07;99372.50;;;16.22;57.03
80248;BME280;69560;52.206;21.018;2023-08-08T01:42:35;99375.77;;;16.22;56.97
80248;BME280;69560;52.206;21.018;2023-08-08T01:45:02;99374.88;;;16.21;57.04
80248;BME280;69560;52.206;21.018;2023-08-08T01:47:30;99383.05;;;16.22;57.12
80248;BME280;69560;52.206;21.018;2023-08-08T01:49:56;99379.30;;;16.21;56.95
80248;BME280;69560;52.206;21.018;2023-08-08T01:52:23;99381.05;;;16.22;57.06
80248;BME280;69560;52.206;21.018;2023-08-08T01:54:50;99378.23;;;16.22;57.04
80248;BME280;69560;52.206;21.018;2023-08-08T01:57:16;99379.84;;;16.17;56.99
80248;BME280;69560;52.206;21.018;2023-08-08T01:59:45;99386.09;;;16.16;56.89
80248;BME280;69560;52.206;21.018;2023-08-08T02:02:11;99391.00;;;16.14;56.89
80248;BME280;69560;52.206;21.018;2023-08-08T02:04:38;99392.51;;;16.10;56.84
80248;BME280;69560;52.206;21.018;2023-08-08T02:07:04;99390.50;;;16.07;56.93
80248;BME280;69560;52.206;21.018;2023-08-08T02:09:30;99390.55;;;16.04;56.93
80248;BME280;69560;52.206;21.018;2023-08-08T02:11:57;99394.59;;;16.00;56.80
80248;BME280;69560;52.206;21.018;2023-08-08T02:14:23;99394.88;;;15.98;56.84
80248;BME280;69560;52.206;21.018;2023-08-08T02:16:50;99400.16;;;15.97;56.82
80248;BME280;69560;52.206;21.018;2023-08-08T02:19:16;99404.63;;;15.97;56.84
80248;BME280;69560;52.206;21.018;2023-08-08T02:21:43;99407.05;;;15.96;56.76
80248;BME280;69560;52.206;21.018;2023-08-08T02:24:09;99414.73;;;15.95;56.79
80248;BME280;69560;52.206;21.018;2023-08-08T02:26:36;99418.45;;;15.92;56.80
80248;BME280;69560;52.206;21.018;2023-08-08T02:29:03;99419.86;;;15.89;56.79
80248;BME280;69560;52.206;21.018;2023-08-08T02:31:29;99423.75;;;15.85;56.72
80248;BME280;69560;52.206;21.018;2023-08-08T02:33:55;99426.38;;;15.81;56.66
80248;BME280;69560;52.206;21.018;2023-08-08T02:36:22;99426.02;;;15.78;56.79
80248;BME280;69560;52.206;21.018;2023-08-08T02:38:48;99436.06;;;15.74;56.87
80248;BME280;69560;52.206;21.018;2023-08-08T02:41:16;99427.02;;;15.70;56.89
80248;BME280;69560;52.206;21.018;2023-08-08T02:43:42;99434.16;;;15.68;56.93
80248;BME280;69560;52.206;21.018;2023-08-08T02:46:08;99437.80;;;15.65;56.94
80248;BME280;69560;52.206;21.018;2023-08-08T02:48:35;99437.43;;;15.61;56.93
80248;BME280;69560;52.206;21.018;2023-08-08T02:51:01;99440.98;;;15.59;56.88
80248;BME280;69560;52.206;21.018;2023-08-08T02:53:28;99443.88;;;15.58;56.94
80248;BME280;69560;52.206;21.018;2023-08-08T02:55:54;99450.55;;;15.60;57.02
80248;BME280;69560;52.206;21.018;2023-08-08T02:58:20;99448.80;;;15.60;56.85
80248;BME280;69560;52.206;21.018;2023-08-08T03:00:47;99457.02;;;15.60;56.82
80248;BME280;69560;52.206;21.018;2023-08-08T03:03:13;99463.21;;;15.56;56.80
80248;BME280;69560;52.206;21.018;2023-08-08T03:05:40;99461.48;;;15.54;56.88
80248;BME280;69560;52.206;21.018;2023-08-08T03:08:07;99464.23;;;15.51;56.77
80248;BME280;69560;52.206;21.018;2023-08-08T03:10:33;99468.46;;;15.45;56.63
80248;BME280;69560;52.206;21.018;2023-08-08T03:13:00;99473.36;;;15.44;56.76
80248;BME280;69560;52.206;21.018;2023-08-08T03:15:26;99476.73;;;15.43;56.87
80248;BME280;69560;52.206;21.018;2023-08-08T03:17:53;99472.22;;;15.37;56.81
80248;BME280;69560;52.206;21.018;2023-08-08T03:20:19;99479.32;;;15.39;56.77
80248;BME280;69560;52.206;21.018;2023-08-08T03:22:46;99483.06;;;15.39;56.85
80248;BME280;69560;52.206;21.018;2023-08-08T03:25:12;99483.86;;;15.38;56.91
80248;BME280;69560;52.206;21.018;2023-08-08T03:27:38;99481.95;;;15.38;56.83
80248;BME280;69560;52.206;21.018;2023-08-08T03:30:05;99489.06;;;15.38;56.74
80248;BME280;69560;52.206;21.018;2023-08-08T03:32:32;99492.81;;;15.37;56.72
80248;BME280;69560;52.206;21.018;2023-08-08T03:34:59;99496.04;;;15.35;56.64
80248;BME280;69560;52.206;21.018;2023-08-08T03:37:25;99495.56;;;15.34;56.81
80248;BME280;69560;52.206;21.018;2023-08-08T03:39:52;99496.52;;;15.35;56.87
80248;BME280;69560;52.206;21.018;2023-08-08T03:42:18;99500.86;;;15.33;56.81
80248;BME280;69560;52.206;21.018;2023-08-08T03:44:45;99503.89;;;15.33;56.76
80248;BME280;69560;52.206;21.018;2023-08-08T03:47:11;99508.59;;;15.34;56.97
80248;BME280;69560;52.206;21.018;2023-08-08T03:49:38;99512.27;;;15.34;56.84
80248;BME280;69560;52.206;21.018;2023-08-08T03:52:05;99513.30;;;15.33;56.94
80248;BME280;69560;52.206;21.018;2023-08-08T03:54:32;99515.16;;;15.31;56.89
80248;BME280;69560;52.206;21.018;2023-08-08T03:56:58;99523.09;;;15.29;56.79
80248;BME280;69560;52.206;21.018;2023-08-08T03:59:24;99528.45;;;15.28;56.91
80248;BME280;69560;52.206;21.018;2023-08-08T04:01:51;99530.52;;;15.27;56.72
80248;BME280;69560;52.206;21.018;2023-08-08T04:04:20;99536.35;;;15.28;56.90
80248;BME280;69560;52.206;21.018;2023-08-08T04:06:47;99540.86;;;15.32;56.92
80248;BME280;69560;52.206;21.018;2023-08-08T04:09:13;99544.20;;;15.33;56.90
80248;BME280;69560;52.206;21.018;2023-08-08T04:11:40;99544.36;;;15.34;56.89
80248;BME280;69560;52.206;21.018;2023-08-08T04:14:07;99541.68;;;15.29;56.81
80248;BME280;69560;52.206;21.018;2023-08-08T04:16:33;99549.36;;;15.36;56.93
80248;BME280;69560;52.206;21.018;2023-08-08T04:19:00;99551.48;;;15.38;56.90
80248;BME280;69560;52.206;21.018;2023-08-08T04:21:29;99553.63;;;15.38;56.90
80248;BME280;69560;52.206;21.018;2023-08-08T04:23:59;99562.80;;;15.41;57.05
80248;BME280;69560;52.206;21.018;2023-08-08T04:26:26;99566.23;;;15.42;56.81
80248;BME280;69560;52.206;21.018;2023-08-08T04:28:52;99565.44;;;15.42;56.84
80248;BME280;69560;52.206;21.018;2023-08-08T04:31:19;99572.38;;;15.45;56.83
80248;BME280;69560;52.206;21.018;2023-08-08T04:33:45;99573.55;;;15.45;56.94
80248;BME280;69560;52.206;21.018;2023-08-08T04:36:12;99575.92;;;15.47;56.88
80248;BME280;69560;52.206;21.018;2023-08-08T04:38:38;99576.84;;;15.50;56.95
80248;BME280;69560;52.206;21.018;2023-08-08T04:41:05;99575.94;;;15.53;56.95
80248;BME280;69560;52.206;21.018;2023-08-08T04:43:31;99581.15;;;15.58;56.82
80248;BME280;69560;52.206;21.018;2023-08-08T04:45:58;99579.48;;;15.65;56.93
80248;BME280;69560;52.206;21.018;2023-08-08T04:48:24;99583.30;;;15.72;56.78
80248;BME280;69560;52.206;21.018;2023-08-08T04:50:50;99587.09;;;15.76;56.80
80248;BME280;69560;52.206;21.018;2023-08-08T04:53:17;99587.21;;;15.79;56.66
80248;BME280;69560;52.206;21.018;2023-08-08T04:55:43;99589.98;;;15.82;56.73
80248;BME280;69560;52.206;21.018;2023-08-08T04:58:10;99595.48;;;15.83;56.67
80248;BME280;69560;52.206;21.018;2023-08-08T05:00:36;99592.26;;;15.85;56.67
80248;BME280;69560;52.206;21.018;2023-08-08T05:03:03;99596.03;;;15.89;56.57
80248;BME280;69560;52.206;21.018;2023-08-08T05:05:29;99602.88;;;15.92;56.49
80248;BME280;69560;52.206;21.018;2023-08-08T05:07:56;99604.06;;;15.93;56.59
80248;BME280;69560;52.206;21.018;2023-08-08T05:10:22;99606.02;;;15.95;56.55
80248;BME280;69560;52.206;21.018;2023-08-08T05:12:49;99608.74;;;15.96;56.49
80248;BME280;69560;52.206;21.018;2023-08-08T05:15:15;99607.80;;;15.94;56.31
80248;BME280;69560;52.206;21.018;2023-08-08T05:17:42;99608.77;;;15.93;56.28
80248;BME280;69560;52.206;21.018;2023-08-08T05:20:09;99607.73;;;15.94;56.26
80248;BME280;69560;52.206;21.018;2023-08-08T05:22:36;99605.80;;;15.96;56.34
80248;BME280;69560;52.206;21.018;2023-08-08T05:25:03;99612.39;;;15.98;56.28
80248;BME280;69560;52.206;21.018;2023-08-08T05:27:29;99614.36;;;16.00;56.42
80248;BME280;69560;52.206;21.018;2023-08-08T05:29:56;99614.02;;;16.01;56.20
80248;BME280;69560;52.206;21.018;2023-08-08T05:32:22;99619.70;;;16.01;56.21
80248;BME280;69560;52.206;21.018;2023-08-08T05:34:50;99619.75;;;16.04;56.20
80248;BME280;69560;52.206;21.018;2023-08-08T05:37:17;99620.45;;;16.06;56.12
80248;BME280;69560;52.206;21.018;2023-08-08T05:39:44;99624.48;;;16.09;56.17
80248;BME280;69560;52.206;21.018;2023-08-08T05:42:11;99628.18;;;16.13;56.11
80248;BME280;69560;52.206;21.018;2023-08-08T05:44:37;99629.32;;;16.17;56.20
80248;BME280;69560;52.206;21.018;2023-08-08T05:47:04;99631.98;;;16.22;56.22
80248;BME280;69560;52.206;21.018;2023-08-08T05:49:31;99631.80;;;16.23;55.94
80248;BME280;69560;52.206;21.018;2023-08-08T05:51:57;99636.66;;;16.24;55.98
80248;BME280;69560;52.206;21.018;2023-08-08T05:54:23;99636.64;;;16.26;55.90
80248;BME280;69560;52.206;21.018;2023-08-08T05:56:50;99639.70;;;16.25;55.80
80248;BME280;69560;52.206;21.018;2023-08-08T05:59:16;99644.02;;;16.24;55.66
80248;BME280;69560;52.206;21.018;2023-08-08T06:01:43;99640.33;;;16.24;55.65
80248;BME280;69560;52.206;21.018;2023-08-08T06:04:10;99653.04;;;16.25;55.80
80248;BME280;69560;52.206;21.018;2023-08-08T06:06:37;99651.66;;;16.27;55.85
80248;BME280;69560;52.206;21.018;2023-08-08T06:09:03;99648.14;;;16.27;55.69
80248;BME280;69560;52.206;21.018;2023-08-08T06:11:30;99655.21;;;16.30;55.76
80248;BME280;69560;52.206;21.018;2023-08-08T06:13:56;99657.89;;;16.33;55.72
80248;BME280;69560;52.206;21.018;2023-08-08T06:16:23;99657.48;;;16.34;55.58
80248;BME280;69560;52.206;21.018;2023-08-08T06:18:49;99659.73;;;16.38;55.51
80248;BME280;69560;52.206;21.018;2023-08-08T06:21:16;99660.05;;;16.38;55.51
80248;BME280;69560;52.206;21.018;2023-08-08T06:23:42;99663.37;;;16.42;55.44
80248;BME280;69560;52.206;21.018;2023-08-08T06:26:09;99673.61;;;16.48;55.39
80248;BME280;69560;52.206;21.018;2023-08-08T06:28:35;99669.75;;;16.52;55.26
80248;BME280;69560;52.206;21.018;2023-08-08T06:31:02;99676.50;;;16.55;55.22
80248;BME280;69560;52.206;21.018;2023-08-08T06:33:29;99675.02;;;16.57;55.08
80248;BME280;69560;52.206;21.018;2023-08-08T06:35:56;99678.45;;;16.59;55.06
80248;BME280;69560;52.206;21.018;2023-08-08T06:38:23;99682.26;;;16.61;55.02
80248;BME280;69560;52.206;21.018;2023-08-08T06:40:49;99679.11;;;16.64;54.78
80248;BME280;69560;52.206;21.018;2023-08-08T06:43:16;99680.65;;;16.67;55.00
80248;BME280;69560;52.206;21.018;2023-08-08T06:45:43;99682.35;;;16.71;55.01
80248;BME280;69560;52.206;21.018;2023-08-08T06:48:13;99684.52;;;16.75;54.94
80248;BME280;69560;52.206;21.018;2023-08-08T06:50:39;99687.83;;;16.80;54.81
80248;BME280;69560;52.206;21.018;2023-08-08T06:53:06;99687.89;;;16.81;54.71
80248;BME280;69560;52.206;21.018;2023-08-08T06:55:33;99690.25;;;16.84;54.70
80248;BME280;69560;52.206;21.018;2023-08-08T06:57:59;99688.45;;;16.86;54.49
80248;BME280;69560;52.206;21.018;2023-08-08T07:00:27;99689.04;;;16.90;54.47
80248;BME280;69560;52.206;21.018;2023-08-08T07:02:54;99690.80;;;16.94;54.37
80248;BME280;69560;52.206;21.018;2023-08-08T07:05:23;99689.17;;;16.97;54.04
80248;BME280;69560;52.206;21.018;2023-08-08T07:07:50;99687.65;;;17.01;54.08
80248;BME280;69560;52.206;21.018;2023-08-08T07:10:19;99688.48;;;17.04;53.79
80248;BME280;69560;52.206;21.018;2023-08-08T07:12:48;99684.15;;;17.10;54.00
80248;BME280;69560;52.206;21.018;2023-08-08T07:15:15;99690.60;;;17.17;53.89
80248;BME280;69560;52.206;21.018;2023-08-08T07:17:42;99694.76;;;17.23;53.72
80248;BME280;69560;52.206;21.018;2023-08-08T07:20:09;99691.30;;;17.28;53.56
80248;BME280;69560;52.206;21.018;2023-08-08T07:22:40;99684.91;;;17.32;53.23
80248;BME280;69560;52.206;21.018;2023-08-08T07:25:08;99689.42;;;17.39;53.43
80248;BME280;69560;52.206;21.018;2023-08-08T07:27:37;99684.67;;;17.48;53.11
80248;BME280;69560;52.206;21.018;2023-08-08T07:30:04;99682.05;;;17.55;53.08
80248;BME280;69560;52.206;21.018;2023-08-08T07:32:33;99690.30;;;17.65;53.15
80248;BME280;69560;52.206;21.018;2023-08-08T07:35:00;99687.77;;;17.71;52.84
80248;BME280;69560;52.206;21.018;2023-08-08T07:37:29;99687.15;;;17.79;52.85
80248;BME280;69560;52.206;21.018;2023-08-08T07:39:56;99685.94;;;17.88;52.84
80248;BME280;69560;52.206;21.018;2023-08-08T07:42:23;99682.92;;;17.98;52.66
80248;BME280;69560;52.206;21.018;2023-08-08T07:44:49;99680.92;;;18.06;52.43
80248;BME280;69560;52.206;21.018;2023-08-08T07:47:16;99686.40;;;18.09;52.19
80248;BME280;69560;52.206;21.018;2023-08-08T07:49:43;99687.45;;;18.16;52.02
80248;BME280;69560;52.206;21.018;2023-08-08T07:52:09;99683.77;;;18.28;51.97
80248;BME280;69560;52.206;21.018;2023-08-08T07:54:36;99693.55;;;18.40;51.96
80248;BME280;69560;52.206;21.018;2023-08-08T07:57:03;99686.92;;;18.46;51.58
80248;BME280;69560;52.206;21.018;2023-08-08T07:59:30;99691.56;;;18.55;51.52
80248;BME280;69560;52.206;21.018;2023-08-08T08:01:56;99699.68;;;18.65;51.47
80248;BME280;69560;52.206;21.018;2023-08-08T08:04:23;99701.85;;;18.72;51.10
80248;BME280;69560;52.206;21.018;2023-08-08T08:06:49;99691.40;;;18.76;51.12
80248;BME280;69560;52.206;21.018;2023-08-08T08:09:16;99695.90;;;18.83;51.04
80248;BME280;69560;52.206;21.018;2023-08-08T08:11:43;99693.39;;;18.87;50.80
80248;BME280;69560;52.206;21.018;2023-08-08T08:14:10;99691.71;;;18.88;50.30
80248;BME280;69560;52.206;21.018;2023-08-08T08:16:36;99699.96;;;18.91;50.20
80248;BME280;69560;52.206;21.018;2023-08-08T08:19:03;99694.95;;;18.96;49.98
80248;BME280;69560;52.206;21.018;2023-08-08T08:21:30;99696.23;;;19.06;49.91
80248;BME280;69560;52.206;21.018;2023-08-08T08:23:57;99690.34;;;19.11;49.50
80248;BME280;69560;52.206;21.018;2023-08-08T08:26:23;99695.58;;;19.17;49.70
80248;BME280;69560;52.206;21.018;2023-08-08T08:28:50;99697.70;;;19.20;49.12
80248;BME280;69560;52.206;21.018;2023-08-08T08:31:17;99689.02;;;19.23;48.95
80248;BME280;69560;52.206;21.018;2023-08-08T08:33:43;99695.05;;;19.33;49.05
80248;BME280;69560;52.206;21.018;2023-08-08T08:36:10;99695.90;;;19.35;48.77
80248;BME280;69560;52.206;21.018;2023-08-08T08:38:36;99700.37;;;19.31;48.54
80248;BME280;69560;52.206;21.018;2023-08-08T08:41:02;99700.54;;;19.31;48.72
80248;BME280;69560;52.206;21.018;2023-08-08T08:43:30;99696.35;;;19.32;48.78
80248;BME280;69560;52.206;21.018;2023-08-08T08:46:00;99700.63;;;19.35;48.64
80248;BME280;69560;52.206;21.018;2023-08-08T08:48:28;99701.58;;;19.45;48.43
80248;BME280;69560;52.206;21.018;2023-08-08T08:50:54;99694.65;;;19.46;48.29
80248;BME280;69560;52.206;21.018;2023-08-08T08:53:22;99693.76;;;19.50;48.47
80248;BME280;69560;52.206;21.018;2023-08-08T08:55:50;99701.38;;;19.53;48.19
80248;BME280;69560;52.206;21.018;2023-08-08T08:58:17;99704.81;;;19.60;48.13
80248;BME280;69560;52.206;21.018;2023-08-08T09:00:44;99703.38;;;19.65;47.94
80248;BME280;69560;52.206;21.018;2023-08-08T09:03:12;99703.08;;;19.68;47.69
80248;BME280;69560;52.206;21.018;2023-08-08T09:05:41;99700.21;;;19.73;47.61
80248;BME280;69560;52.206;21.018;2023-08-08T09:08:08;99701.31;;;19.80;47.39
80248;BME280;69560;52.206;21.018;2023-08-08T09:10:35;99706.30;;;19.89;47.27
80248;BME280;69560;52.206;21.018;2023-08-08T09:13:02;99705.08;;;19.92;47.16
80248;BME280;69560;52.206;21.018;2023-08-08T09:15:32;99705.30;;;19.99;47.13
80248;BME280;69560;52.206;21.018;2023-08-08T09:18:00;99708.00;;;19.97;46.88
80248;BME280;69560;52.206;21.018;2023-08-08T09:20:27;99714.77;;;19.94;46.83
80248;BME280;69560;52.206;21.018;2023-08-08T09:22:55;99715.27;;;20.02;46.70
80248;BME280;69560;52.206;21.018;2023-08-08T09:25:22;99716.55;;;20.08;46.29
80248;BME280;69560;52.206;21.018;2023-08-08T09:27:51;99714.20;;;20.06;46.24
80248;BME280;69560;52.206;21.018;2023-08-08T09:30:20;99715.21;;;20.04;46.52
80248;BME280;69560;52.206;21.018;2023-08-08T09:32:47;99722.24;;;20.00;46.12
80248;BME280;69560;52.206;21.018;2023-08-08T09:35:14;99725.53;;;19.88;45.72
80248;BME280;69560;52.206;21.018;2023-08-08T09:37:41;99723.88;;;19.84;45.88
80248;BME280;69560;52.206;21.018;2023-08-08T09:40:08;99723.58;;;19.98;45.82
80248;BME280;69560;52.206;21.018;2023-08-08T09:42:37;99727.00;;;20.11;45.80
80248;BME280;69560;52.206;21.018;2023-08-08T09:45:05;99715.71;;;20.21;45.55
80248;BME280;69560;52.206;21.018;2023-08-08T09:47:32;99715.34;;;20.31;45.47
80248;BME280;69560;52.206;21.018;2023-08-08T09:50:00;99726.15;;;20.36;44.79
80248;BME280;69560;52.206;21.018;2023-08-08T09:52:28;99721.55;;;20.28;44.60
80248;BME280;69560;52.206;21.018;2023-08-08T09:54:56;99724.88;;;20.22;44.15
80248;BME280;69560;52.206;21.018;2023-08-08T09:57:23;99731.92;;;20.14;43.81
80248;BME280;69560;52.206;21.018;2023-08-08T09:59:52;99731.41;;;20.00;43.64
80248;BME280;69560;52.206;21.018;2023-08-08T10:02:19;99725.39;;;19.88;43.78
80248;BME280;69560;52.206;21.018;2023-08-08T10:04:47;99723.11;;;19.82;44.10
80248;BME280;69560;52.206;21.018;2023-08-08T10:07:14;99723.51;;;19.83;44.10
80248;BME280;69560;52.206;21.018;2023-08-08T10:09:41;99721.38;;;19.81;43.98
80248;BME280;69560;52.206;21.018;2023-08-08T10:12:10;99716.23;;;19.79;44.06
80248;BME280;69560;52.206;21.018;2023-08-08T10:14:37;99717.77;;;19.80;43.91
80248;BME280;69560;52.206;21.018;2023-08-08T10:17:07;99721.77;;;19.81;43.84
80248;BME280;69560;52.206;21.018;2023-08-08T10:19:34;99720.05;;;19.80;43.79
80248;BME280;69560;52.206;21.018;2023-08-08T10:22:08;99716.15;;;19.78;43.62
80248;BME280;69560;52.206;21.018;2023-08-08T10:24:36;99722.05;;;19.77;43.53
80248;BME280;69560;52.206;21.018;2023-08-08T10:27:03;99716.73;;;19.71;43.19
80248;BME280;69560;52.206;21.018;2023-08-08T10:29:32;99718.31;;;19.63;43.44
80248;BME280;69560;52.206;21.018;2023-08-08T10:32:04;99726.39;;;19.64;43.37
80248;BME280;69560;52.206;21.018;2023-08-08T10:34:38;99723.17;;;19.68;43.55
80248;BME280;69560;52.206;21.018;2023-08-08T10:37:08;99724.27;;;19.84;43.68
80248;BME280;69560;52.206;21.018;2023-08-08T10:39:35;99719.42;;;20.00;43.72
80248;BME280;69560;52.206;21.018;2023-08-08T10:42:04;99725.34;;;20.19;43.94
80248;BME280;69560;52.206;21.018;2023-08-08T10:44:31;99721.80;;;20.39;43.49
80248;BME280;69560;52.206;21.018;2023-08-08T10:47:00;99722.95;;;20.52;43.49
80248;BME280;69560;52.206;21.018;2023-08-08T10:49:26;99722.33;;;20.65;42.98
80248;BME280;69560;52.206;21.018;2023-08-08T10:51:53;99725.92;;;20.71;42.56
80248;BME280;69560;52.206;21.018;2023-08-08T10:54:22;99729.52;;;20.67;42.08
80248;BME280;69560;52.206;21.018;2023-08-08T10:56:51;99737.47;;;20.57;41.47
80248;BME280;69560;52.206;21.018;2023-08-08T10:59:20;99739.55;;;20.44;41.10
80248;BME280;69560;52.206;21.018;2023-08-08T11:01:48;99734.08;;;20.35;41.34
80248;BME280;69560;52.206;21.018;2023-08-08T11:04:18;99729.70;;;20.33;41.34
80248;BME280;69560;52.206;21.018;2023-08-08T11:06:45;99734.10;;;20.40;41.47
80248;BME280;69560;52.206;21.018;2023-08-08T11:09:13;99727.85;;;20.55;41.56
80248;BME280;69560;52.206;21.018;2023-08-08T11:11:42;99731.94;;;20.67;41.64
80248;BME280;69560;52.206;21.018;2023-08-08T11:14:14;99737.67;;;20.71;41.43
80248;BME280;69560;52.206;21.018;2023-08-08T11:16:42;99743.37;;;20.67;41.17
80248;BME280;69560;52.206;21.018;2023-08-08T11:19:09;99743.34;;;20.60;40.96
80248;BME280;69560;52.206;21.018;2023-08-08T11:21:46;99743.64;;;20.55;40.79
80248;BME280;69560;52.206;21.018;2023-08-08T11:24:13;99739.26;;;20.58;40.74
80248;BME280;69560;52.206;21.018;2023-08-08T11:26:41;99737.39;;;20.67;40.55
80248;BME280;69560;52.206;21.018;2023-08-08T11:29:07;99744.05;;;20.71;40.13
80248;BME280;69560;52.206;21.018;2023-08-08T11:31:35;99739.98;;;20.78;40.22
80248;BME280;69560;52.206;21.018;2023-08-08T11:34:02;99739.45;;;20.98;40.48
80248;BME280;69560;52.206;21.018;2023-08-08T11:36:32;99737.81;;;21.10;40.30
80248;BME280;69560;52.206;21.018;2023-08-08T11:39:03;99746.12;;;21.14;40.05
80248;BME280;69560;52.206;21.018;2023-08-08T11:41:36;99740.17;;;21.19;39.67
80248;BME280;69560;52.206;21.018;2023-08-08T11:44:04;99746.98;;;21.36;39.86
80248;BME280;69560;52.206;21.018;2023-08-08T11:46:31;99751.55;;;21.46;39.31
80248;BME280;69560;52.206;21.018;2023-08-08T11:49:04;99748.73;;;21.55;39.15
80248;BME280;69560;52.206;21.018;2023-08-08T11:51:34;99752.58;;;21.55;38.96
80248;BME280;69560;52.206;21.018;2023-08-08T11:54:03;99755.17;;;21.48;38.40
80248;BME280;69560;52.206;21.018;2023-08-08T11:56:33;99749.36;;;21.41;38.25
80248;BME280;69560;52.206;21.018;2023-08-08T11:59:00;99755.55;;;21.51;38.68
80248;BME280;69560;52.206;21.018;2023-08-08T12:01:30;99756.91;;;21.69;38.63
80248;BME280;69560;52.206;21.018;2023-08-08T12:03:57;99754.41;;;21.86;38.51
80248;BME280;69560;52.206;21.018;2023-08-08T12:06:29;99753.36;;;22.00;38.55
80248;BME280;69560;52.206;21.018;2023-08-08T12:08:56;99758.37;;;22.11;38.29
80248;BME280;69560;52.206;21.018;2023-08-08T12:11:22;99761.80;;;22.26;38.02
80248;BME280;69560;52.206;21.018;2023-08-08T12:13:49;99761.36;;;22.31;37.36
80248;BME280;69560;52.206;21.018;2023-08-08T12:16:15;99762.51;;;22.37;37.56
80248;BME280;69560;52.206;21.018;2023-08-08T12:18:43;99763.40;;;22.47;37.18
80248;BME280;69560;52.206;21.018;2023-08-08T12:21:10;99757.31;;;22.52;36.90
80248;BME280;69560;52.206;21.018;2023-08-08T12:23:37;99757.01;;;22.58;37.05
80248;BME280;69560;52.206;21.018;2023-08-08T12:26:05;99760.21;;;22.56;36.95
80248;BME280;69560;52.206;21.018;2023-08-08T12:28:32;99768.27;;;22.46;36.48
80248;BME280;69560;52.206;21.018;2023-08-08T12:30:59;99764.57;;;22.29;36.12
80248;BME280;69560;52.206;21.018;2023-08-08T12:33:26;99761.23;;;22.13;36.22
80248;BME280;69560;52.206;21.018;2023-08-08T12:35:52;99765.27;;;21.99;36.07
80248;BME280;69560;52.206;21.018;2023-08-08T12:38:19;99765.13;;;21.84;36.07
80248;BME280;69560;52.206;21.018;2023-08-08T12:40:45;99766.77;;;21.73;36.16
80248;BME280;69560;52.206;21.018;2023-08-08T12:43:12;99771.77;;;21.61;35.91
80248;BME280;69560;52.206;21.018;2023-08-08T12:45:40;99766.48;;;21.57;36.18
80248;BME280;69560;52.206;21.018;2023-08-08T12:48:06;99764.07;;;21.62;36.32
80248;BME280;69560;52.206;21.018;2023-08-08T12:50:33;99757.08;;;21.64;36.39
80248;BME280;69560;52.206;21.018;2023-08-08T12:52:59;99769.22;;;21.65;36.44